sensor_id;sensor_type;location;lat;lon;timestamp;P1;durP1;ratioP1;P2;durP2;ratioP2
27977;SDS011;15314;49.248;6.968;2022-08-14T00:00:38;9.15;;;8.30;;
27977;SDS011;15314;49.248;6.968;2022-08-14T00:01:38;7.53;;;7.22;;
27977;SDS011;15314;49.248;6.968;2022-08-14T00:02:39;7.85;;;7.45;;
27977;SDS011;15314;49.248;6.968;2022-08-14T00:03:41;6.95;;;6.55;;
27977;SDS011;15314;49.248;6.968;2022-08-14T00:04:41;7.32;;;6.93;;
27977;SDS011;15314;49.248;6.968;2022-08-14T00:05:42;7.47;;;7.07;;
27977;SDS011;15314;49.248;6.968;2022-08-14T00:06:43;7.35;;;7.05;;
27977;SDS011;15314;49.248;6.968;2022-08-14T00:07:43;8.15;;;7.07;;
27977;SDS011;15314;49.248;6.968;2022-08-14T00:08:44;7.72;;;7.22;;
27977;SDS011;15314;49.248;6.968;2022-08-14T00:09:45;7.45;;;7.07;;
27977;SDS011;15314;49.248;6.968;2022-08-14T00:10:46;7.90;;;7.53;;
27977;SDS011;15314;49.248;6.968;2022-08-14T00:11:47;7.70;;;7.30;;
27977;SDS011;15314;49.248;6.968;2022-08-14T00:12:52;7.70;;;7.30;;
27977;SDS011;15314;49.248;6.968;2022-08-14T00:13:54;7.32;;;6.93;;
27977;SDS011;15314;49.248;6.968;2022-08-14T00:14:55;8.05;;;7.32;;
27977;SDS011;15314;49.248;6.968;2022-08-14T00:15:56;7.68;;;7.25;;
27977;SDS011;15314;49.248;6.968;2022-08-14T00:16:59;7.50;;;7.10;;
27977;SDS011;15314;49.248;6.968;2022-08-14T00:17:59;7.82;;;7.43;;
27977;SDS011;15314;49.248;6.968;2022-08-14T00:19:01;8.13;;;7.60;;
27977;SDS011;15314;49.248;6.968;2022-08-14T00:20:03;8.15;;;7.70;;
27977;SDS011;15314;49.248;6.968;2022-08-14T00:21:06;7.93;;;7.53;;
27977;SDS011;15314;49.248;6.968;2022-08-14T00:22:07;7.88;;;7.47;;
27977;SDS011;15314;49.248;6.968;2022-08-14T00:23:09;7.88;;;7.47;;
27977;SDS011;15314;49.248;6.968;2022-08-14T00:24:10;8.15;;;7.50;;
27977;SDS011;15314;49.248;6.968;2022-08-14T00:25:11;7.93;;;7.40;;
27977;SDS011;15314;49.248;6.968;2022-08-14T00:26:12;7.32;;;6.93;;
27977;SDS011;15314;49.248;6.968;2022-08-14T00:27:13;7.55;;;7.05;;
27977;SDS011;15314;49.248;6.968;2022-08-14T00:28:14;7.85;;;7.32;;
27977;SDS011;15314;49.248;6.968;2022-08-14T00:29:14;8.07;;;7.43;;
27977;SDS011;15314;49.248;6.968;2022-08-14T00:30:15;7.97;;;7.32;;
27977;SDS011;15314;49.248;6.968;2022-08-14T00:31:16;8.10;;;7.60;;
27977;SDS011;15314;49.248;6.968;2022-08-14T00:32:17;7.50;;;7.03;;
27977;SDS011;15314;49.248;6.968;2022-08-14T00:33:18;7.32;;;6.93;;
27977;SDS011;15314;49.248;6.968;2022-08-14T00:34:18;7.45;;;7.15;;
27977;SDS011;15314;49.248;6.968;2022-08-14T00:35:19;7.97;;;7.38;;
27977;SDS011;15314;49.248;6.968;2022-08-14T00:36:21;7.70;;;7.30;;
27977;SDS011;15314;49.248;6.968;2022-08-14T00:37:22;7.75;;;7.28;;
27977;SDS011;15314;49.248;6.968;2022-08-14T00:38:23;7.15;;;6.75;;
27977;SDS011;15314;49.248;6.968;2022-08-14T00:39:23;7.50;;;7.10;;
27977;SDS011;15314;49.248;6.968;2022-08-14T00:40:24;7.40;;;7.00;;
27977;SDS011;15314;49.248;6.968;2022-08-14T00:41:29;7.65;;;7.20;;
27977;SDS011;15314;49.248;6.968;2022-08-14T00:42:30;7.80;;;7.20;;
27977;SDS011;15314;49.248;6.968;2022-08-14T00:43:32;7.25;;;6.75;;
27977;SDS011;15314;49.248;6.968;2022-08-14T00:44:34;8.05;;;7.65;;
27977;SDS011;15314;49.248;6.968;2022-08-14T00:45:35;8.07;;;7.55;;
27977;SDS011;15314;49.248;6.968;2022-08-14T00:46:36;8.00;;;7.25;;
27977;SDS011;15314;49.248;6.968;2022-08-14T00:47:38;8.10;;;7.50;;
27977;SDS011;15314;49.248;6.968;2022-08-14T00:48:39;7.65;;;7.28;;
27977;SDS011;15314;49.248;6.968;2022-08-14T00:49:40;9.43;;;6.97;;
27977;SDS011;15314;49.248;6.968;2022-08-14T00:50:42;7.13;;;6.82;;
27977;SDS011;15314;49.248;6.968;2022-08-14T00:51:42;7.50;;;7.18;;
27977;SDS011;15314;49.248;6.968;2022-08-14T00:52:47;7.95;;;7.55;;
27977;SDS011;15314;49.248;6.968;2022-08-14T00:53:51;8.07;;;7.40;;
27977;SDS011;15314;49.248;6.968;2022-08-14T00:54:52;7.95;;;7.35;;
27977;SDS011;15314;49.248;6.968;2022-08-14T00:55:53;7.53;;;7.13;;
27977;SDS011;15314;49.248;6.968;2022-08-14T00:56:56;8.00;;;7.50;;
27977;SDS011;15314;49.248;6.968;2022-08-14T00:57:57;7.97;;;7.47;;
27977;SDS011;15314;49.248;6.968;2022-08-14T00:59:17;8.10;;;7.70;;
27977;SDS011;15314;49.248;6.968;2022-08-14T01:00:18;7.60;;;7.10;;
27977;SDS011;15314;49.248;6.968;2022-08-14T01:01:19;7.85;;;7.45;;
27977;SDS011;15314;49.248;6.968;2022-08-14T01:02:20;8.38;;;7.85;;
27977;SDS011;15314;49.248;6.968;2022-08-14T01:03:24;7.68;;;7.20;;
27977;SDS011;15314;49.248;6.968;2022-08-14T01:04:28;8.00;;;7.43;;
27977;SDS011;15314;49.248;6.968;2022-08-14T01:05:32;8.55;;;7.80;;
27977;SDS011;15314;49.248;6.968;2022-08-14T01:06:33;8.60;;;8.05;;
27977;SDS011;15314;49.248;6.968;2022-08-14T01:07:34;7.43;;;6.97;;
27977;SDS011;15314;49.248;6.968;2022-08-14T01:08:36;8.00;;;7.60;;
27977;SDS011;15314;49.248;6.968;2022-08-14T01:09:42;7.72;;;7.20;;
27977;SDS011;15314;49.248;6.968;2022-08-14T01:10:43;8.13;;;7.53;;
27977;SDS011;15314;49.248;6.968;2022-08-14T01:11:50;7.57;;;7.18;;
27977;SDS011;15314;49.248;6.968;2022-08-14T01:12:52;8.30;;;7.78;;
27977;SDS011;15314;49.248;6.968;2022-08-14T01:13:53;8.00;;;7.60;;
27977;SDS011;15314;49.248;6.968;2022-08-14T01:15:00;7.68;;;7.13;;
27977;SDS011;15314;49.248;6.968;2022-08-14T01:16:04;8.05;;;7.65;;
27977;SDS011;15314;49.248;6.968;2022-08-14T01:17:07;8.02;;;7.43;;
27977;SDS011;15314;49.248;6.968;2022-08-14T01:18:08;8.05;;;7.65;;
27977;SDS011;15314;49.248;6.968;2022-08-14T01:19:28;7.85;;;7.45;;
27977;SDS011;15314;49.248;6.968;2022-08-14T01:20:47;8.50;;;7.70;;
27977;SDS011;15314;49.248;6.968;2022-08-14T01:22:03;7.88;;;7.45;;
27977;SDS011;15314;49.248;6.968;2022-08-14T01:23:07;7.97;;;7.47;;
27977;SDS011;15314;49.248;6.968;2022-08-14T01:24:10;10.23;;;7.45;;
27977;SDS011;15314;49.248;6.968;2022-08-14T01:25:14;8.15;;;7.60;;
27977;SDS011;15314;49.248;6.968;2022-08-14T01:26:15;8.27;;;7.75;;
27977;SDS011;15314;49.248;6.968;2022-08-14T01:27:21;8.27;;;7.72;;
27977;SDS011;15314;49.248;6.968;2022-08-14T01:28:23;8.35;;;7.95;;
27977;SDS011;15314;49.248;6.968;2022-08-14T01:29:29;8.48;;;7.90;;
27977;SDS011;15314;49.248;6.968;2022-08-14T01:30:35;8.45;;;7.90;;
27977;SDS011;15314;49.248;6.968;2022-08-14T01:31:37;8.27;;;7.75;;
27977;SDS011;15314;49.248;6.968;2022-08-14T01:32:53;8.50;;;7.90;;
27977;SDS011;15314;49.248;6.968;2022-08-14T01:33:55;8.57;;;8.07;;
27977;SDS011;15314;49.248;6.968;2022-08-14T01:34:58;8.27;;;7.85;;
27977;SDS011;15314;49.248;6.968;2022-08-14T01:35:59;8.70;;;8.10;;
27977;SDS011;15314;49.248;6.968;2022-08-14T01:36:59;8.07;;;7.63;;
27977;SDS011;15314;49.248;6.968;2022-08-14T01:38:02;8.52;;;8.02;;
27977;SDS011;15314;49.248;6.968;2022-08-14T01:39:10;7.85;;;7.35;;
27977;SDS011;15314;49.248;6.968;2022-08-14T01:40:16;7.97;;;7.47;;
27977;SDS011;15314;49.248;6.968;2022-08-14T01:41:18;8.00;;;7.57;;
27977;SDS011;15314;49.248;6.968;2022-08-14T01:42:20;8.30;;;7.65;;
27977;SDS011;15314;49.248;6.968;2022-08-14T01:43:20;8.57;;;7.75;;
27977;SDS011;15314;49.248;6.968;2022-08-14T01:44:22;8.90;;;8.13;;
27977;SDS011;15314;49.248;6.968;2022-08-14T01:45:28;8.18;;;7.65;;
27977;SDS011;15314;49.248;6.968;2022-08-14T01:46:30;7.38;;;7.07;;
27977;SDS011;15314;49.248;6.968;2022-08-14T01:47:33;8.10;;;7.70;;
27977;SDS011;15314;49.248;6.968;2022-08-14T01:48:33;8.73;;;8.00;;
27977;SDS011;15314;49.248;6.968;2022-08-14T01:49:34;8.75;;;8.25;;
27977;SDS011;15314;49.248;6.968;2022-08-14T01:50:35;8.32;;;7.75;;
27977;SDS011;15314;49.248;6.968;2022-08-14T01:51:36;8.25;;;7.75;;
27977;SDS011;15314;49.248;6.968;2022-08-14T01:52:38;8.07;;;7.68;;
27977;SDS011;15314;49.248;6.968;2022-08-14T01:53:40;8.02;;;7.63;;
27977;SDS011;15314;49.248;6.968;2022-08-14T01:54:43;7.93;;;7.40;;
27977;SDS011;15314;49.248;6.968;2022-08-14T01:55:43;7.97;;;7.45;;
27977;SDS011;15314;49.248;6.968;2022-08-14T01:56:44;11.90;;;7.65;;
27977;SDS011;15314;49.248;6.968;2022-08-14T01:57:45;8.02;;;7.53;;
27977;SDS011;15314;49.248;6.968;2022-08-14T01:58:47;8.35;;;7.72;;
27977;SDS011;15314;49.248;6.968;2022-08-14T01:59:48;8.35;;;7.95;;
27977;SDS011;15314;49.248;6.968;2022-08-14T02:00:50;8.13;;;7.63;;
27977;SDS011;15314;49.248;6.968;2022-08-14T02:01:54;8.15;;;7.75;;
27977;SDS011;15314;49.248;6.968;2022-08-14T02:02:56;8.50;;;8.00;;
27977;SDS011;15314;49.248;6.968;2022-08-14T02:03:57;8.23;;;7.65;;
27977;SDS011;15314;49.248;6.968;2022-08-14T02:04:58;10.88;;;7.68;;
27977;SDS011;15314;49.248;6.968;2022-08-14T02:06:00;8.27;;;7.80;;
27977;SDS011;15314;49.248;6.968;2022-08-14T02:07:02;7.70;;;7.00;;
27977;SDS011;15314;49.248;6.968;2022-08-14T02:08:04;7.85;;;7.35;;
27977;SDS011;15314;49.248;6.968;2022-08-14T02:09:07;8.00;;;7.43;;
27977;SDS011;15314;49.248;6.968;2022-08-14T02:10:08;7.75;;;7.25;;
27977;SDS011;15314;49.248;6.968;2022-08-14T02:11:10;7.82;;;7.43;;
27977;SDS011;15314;49.248;6.968;2022-08-14T02:12:23;8.35;;;7.85;;
27977;SDS011;15314;49.248;6.968;2022-08-14T02:13:24;8.15;;;7.75;;
27977;SDS011;15314;49.248;6.968;2022-08-14T02:14:24;7.82;;;7.43;;
27977;SDS011;15314;49.248;6.968;2022-08-14T02:15:25;8.90;;;8.18;;
27977;SDS011;15314;49.248;6.968;2022-08-14T02:16:28;8.30;;;7.63;;
27977;SDS011;15314;49.248;6.968;2022-08-14T02:17:35;8.35;;;7.70;;
27977;SDS011;15314;49.248;6.968;2022-08-14T02:18:36;8.18;;;7.70;;
27977;SDS011;15314;49.248;6.968;2022-08-14T02:19:38;7.53;;;7.18;;
27977;SDS011;15314;49.248;6.968;2022-08-14T02:20:39;7.93;;;7.47;;
27977;SDS011;15314;49.248;6.968;2022-08-14T02:21:40;8.32;;;7.90;;
27977;SDS011;15314;49.248;6.968;2022-08-14T02:22:42;7.97;;;7.47;;
27977;SDS011;15314;49.248;6.968;2022-08-14T02:23:45;8.05;;;7.55;;
27977;SDS011;15314;49.248;6.968;2022-08-14T02:24:47;7.97;;;7.57;;
27977;SDS011;15314;49.248;6.968;2022-08-14T02:25:48;8.05;;;7.55;;
27977;SDS011;15314;49.248;6.968;2022-08-14T02:26:49;7.97;;;7.50;;
27977;SDS011;15314;49.248;6.968;2022-08-14T02:27:51;8.15;;;7.50;;
27977;SDS011;15314;49.248;6.968;2022-08-14T02:28:57;8.68;;;8.07;;
27977;SDS011;15314;49.248;6.968;2022-08-14T02:30:04;7.90;;;7.40;;
27977;SDS011;15314;49.248;6.968;2022-08-14T02:31:05;7.85;;;7.55;;
27977;SDS011;15314;49.248;6.968;2022-08-14T02:32:07;8.00;;;7.60;;
27977;SDS011;15314;49.248;6.968;2022-08-14T02:33:09;7.72;;;7.32;;
27977;SDS011;15314;49.248;6.968;2022-08-14T02:34:20;8.25;;;7.75;;
27977;SDS011;15314;49.248;6.968;2022-08-14T02:35:28;7.80;;;7.43;;
27977;SDS011;15314;49.248;6.968;2022-08-14T02:36:29;8.02;;;7.43;;
27977;SDS011;15314;49.248;6.968;2022-08-14T02:37:31;7.53;;;7.13;;
27977;SDS011;15314;49.248;6.968;2022-08-14T02:38:32;7.93;;;7.40;;
27977;SDS011;15314;49.248;6.968;2022-08-14T02:39:35;8.07;;;7.57;;
27977;SDS011;15314;49.248;6.968;2022-08-14T02:40:38;8.18;;;7.78;;
27977;SDS011;15314;49.248;6.968;2022-08-14T02:41:39;7.80;;;7.38;;
27977;SDS011;15314;49.248;6.968;2022-08-14T02:42:40;8.68;;;7.95;;
27977;SDS011;15314;49.248;6.968;2022-08-14T02:43:40;8.40;;;8.00;;
27977;SDS011;15314;49.248;6.968;2022-08-14T02:44:41;7.32;;;7.03;;
27977;SDS011;15314;49.248;6.968;2022-08-14T02:45:43;7.20;;;6.70;;
27977;SDS011;15314;49.248;6.968;2022-08-14T02:46:44;7.85;;;7.40;;
27977;SDS011;15314;49.248;6.968;2022-08-14T02:47:45;7.57;;;7.18;;
27977;SDS011;15314;49.248;6.968;2022-08-14T02:48:45;7.35;;;6.75;;
27977;SDS011;15314;49.248;6.968;2022-08-14T02:49:46;7.00;;;6.70;;
27977;SDS011;15314;49.248;6.968;2022-08-14T02:50:47;7.38;;;6.70;;
27977;SDS011;15314;49.248;6.968;2022-08-14T02:51:48;7.65;;;7.07;;
27977;SDS011;15314;49.248;6.968;2022-08-14T02:52:49;7.18;;;6.88;;
27977;SDS011;15314;49.248;6.968;2022-08-14T02:53:49;7.72;;;6.85;;
27977;SDS011;15314;49.248;6.968;2022-08-14T02:54:51;7.20;;;6.90;;
27977;SDS011;15314;49.248;6.968;2022-08-14T02:55:52;7.93;;;7.25;;
27977;SDS011;15314;49.248;6.968;2022-08-14T02:56:55;7.93;;;7.22;;
27977;SDS011;15314;49.248;6.968;2022-08-14T02:57:58;7.75;;;7.22;;
27977;SDS011;15314;49.248;6.968;2022-08-14T02:58:59;7.80;;;7.40;;
27977;SDS011;15314;49.248;6.968;2022-08-14T03:00:00;8.18;;;7.78;;
27977;SDS011;15314;49.248;6.968;2022-08-14T03:01:03;7.88;;;7.40;;
27977;SDS011;15314;49.248;6.968;2022-08-14T03:02:05;8.27;;;7.88;;
27977;SDS011;15314;49.248;6.968;2022-08-14T03:03:08;7.75;;;7.35;;
27977;SDS011;15314;49.248;6.968;2022-08-14T03:04:08;7.68;;;7.30;;
27977;SDS011;15314;49.248;6.968;2022-08-14T03:05:09;8.48;;;7.78;;
27977;SDS011;15314;49.248;6.968;2022-08-14T03:06:11;7.65;;;7.35;;
27977;SDS011;15314;49.248;6.968;2022-08-14T03:07:13;7.57;;;7.07;;
27977;SDS011;15314;49.248;6.968;2022-08-14T03:08:16;8.05;;;7.55;;
27977;SDS011;15314;49.248;6.968;2022-08-14T03:09:18;7.68;;;7.22;;
27977;SDS011;15314;49.248;6.968;2022-08-14T03:10:18;8.27;;;7.68;;
27977;SDS011;15314;49.248;6.968;2022-08-14T03:11:19;8.10;;;7.63;;
27977;SDS011;15314;49.248;6.968;2022-08-14T03:12:20;8.55;;;7.85;;
27977;SDS011;15314;49.248;6.968;2022-08-14T03:13:23;8.43;;;8.02;;
27977;SDS011;15314;49.248;6.968;2022-08-14T03:14:23;8.73;;;8.23;;
27977;SDS011;15314;49.248;6.968;2022-08-14T03:15:25;9.15;;;8.45;;
27977;SDS011;15314;49.248;6.968;2022-08-14T03:16:25;9.25;;;8.52;;
27977;SDS011;15314;49.248;6.968;2022-08-14T03:17:26;8.73;;;8.13;;
27977;SDS011;15314;49.248;6.968;2022-08-14T03:18:27;7.60;;;7.30;;
27977;SDS011;15314;49.248;6.968;2022-08-14T03:19:28;8.18;;;7.57;;
27977;SDS011;15314;49.248;6.968;2022-08-14T03:20:29;8.30;;;7.80;;
27977;SDS011;15314;49.248;6.968;2022-08-14T03:21:30;8.05;;;7.57;;
27977;SDS011;15314;49.248;6.968;2022-08-14T03:22:31;8.43;;;7.93;;
27977;SDS011;15314;49.248;6.968;2022-08-14T03:23:32;8.10;;;7.70;;
27977;SDS011;15314;49.248;6.968;2022-08-14T03:24:34;8.60;;;7.97;;
27977;SDS011;15314;49.248;6.968;2022-08-14T03:25:38;8.27;;;7.68;;
27977;SDS011;15314;49.248;6.968;2022-08-14T03:26:39;7.80;;;7.30;;
27977;SDS011;15314;49.248;6.968;2022-08-14T03:27:44;8.15;;;7.53;;
27977;SDS011;15314;49.248;6.968;2022-08-14T03:28:47;8.48;;;7.97;;
27977;SDS011;15314;49.248;6.968;2022-08-14T03:29:49;7.53;;;7.13;;
27977;SDS011;15314;49.248;6.968;2022-08-14T03:30:51;7.82;;;7.30;;
27977;SDS011;15314;49.248;6.968;2022-08-14T03:31:52;8.20;;;7.70;;
27977;SDS011;15314;49.248;6.968;2022-08-14T03:32:52;8.15;;;7.65;;
27977;SDS011;15314;49.248;6.968;2022-08-14T03:33:54;8.52;;;7.95;;
27977;SDS011;15314;49.248;6.968;2022-08-14T03:34:55;8.23;;;7.72;;
27977;SDS011;15314;49.248;6.968;2022-08-14T03:35:56;8.18;;;7.70;;
27977;SDS011;15314;49.248;6.968;2022-08-14T03:36:58;7.30;;;6.80;;
27977;SDS011;15314;49.248;6.968;2022-08-14T03:38:09;7.82;;;7.43;;
27977;SDS011;15314;49.248;6.968;2022-08-14T03:39:11;8.13;;;7.70;;
27977;SDS011;15314;49.248;6.968;2022-08-14T03:40:12;7.43;;;7.03;;
27977;SDS011;15314;49.248;6.968;2022-08-14T03:41:13;8.70;;;8.20;;
27977;SDS011;15314;49.248;6.968;2022-08-14T03:42:24;7.95;;;7.43;;
27977;SDS011;15314;49.248;6.968;2022-08-14T03:43:25;8.10;;;7.55;;
27977;SDS011;15314;49.248;6.968;2022-08-14T03:44:26;7.70;;;7.30;;
27977;SDS011;15314;49.248;6.968;2022-08-14T03:45:27;7.95;;;7.45;;
27977;SDS011;15314;49.248;6.968;2022-08-14T03:46:29;8.00;;;7.57;;
27977;SDS011;15314;49.248;6.968;2022-08-14T03:47:31;7.47;;;7.13;;
27977;SDS011;15314;49.248;6.968;2022-08-14T03:48:40;8.27;;;7.88;;
27977;SDS011;15314;49.248;6.968;2022-08-14T03:49:41;8.27;;;7.88;;
27977;SDS011;15314;49.248;6.968;2022-08-14T03:50:48;8.98;;;8.20;;
27977;SDS011;15314;49.248;6.968;2022-08-14T03:51:52;8.77;;;8.30;;
27977;SDS011;15314;49.248;6.968;2022-08-14T03:52:53;7.97;;;7.50;;
27977;SDS011;15314;49.248;6.968;2022-08-14T03:53:58;7.72;;;7.22;;
27977;SDS011;15314;49.248;6.968;2022-08-14T03:54:59;8.38;;;7.75;;
27977;SDS011;15314;49.248;6.968;2022-08-14T03:56:05;8.52;;;7.78;;
27977;SDS011;15314;49.248;6.968;2022-08-14T03:57:06;8.70;;;8.20;;
27977;SDS011;15314;49.248;6.968;2022-08-14T03:58:08;8.48;;;8.07;;
27977;SDS011;15314;49.248;6.968;2022-08-14T03:59:09;8.20;;;7.80;;
27977;SDS011;15314;49.248;6.968;2022-08-14T04:00:12;8.60;;;8.10;;
27977;SDS011;15314;49.248;6.968;2022-08-14T04:01:14;8.32;;;7.60;;
27977;SDS011;15314;49.248;6.968;2022-08-14T04:02:18;7.32;;;6.82;;
27977;SDS011;15314;49.248;6.968;2022-08-14T04:03:21;8.23;;;7.63;;
27977;SDS011;15314;49.248;6.968;2022-08-14T04:04:23;7.68;;;6.97;;
27977;SDS011;15314;49.248;6.968;2022-08-14T04:05:24;7.65;;;6.97;;
27977;SDS011;15314;49.248;6.968;2022-08-14T04:06:24;8.07;;;7.20;;
27977;SDS011;15314;49.248;6.968;2022-08-14T04:07:25;9.48;;;6.68;;
27977;SDS011;15314;49.248;6.968;2022-08-14T04:08:26;7.97;;;7.47;;
27977;SDS011;15314;49.248;6.968;2022-08-14T04:09:28;7.63;;;7.13;;
27977;SDS011;15314;49.248;6.968;2022-08-14T04:10:28;7.70;;;7.30;;
27977;SDS011;15314;49.248;6.968;2022-08-14T04:11:29;7.40;;;7.00;;
27977;SDS011;15314;49.248;6.968;2022-08-14T04:12:30;7.38;;;6.97;;
27977;SDS011;15314;49.248;6.968;2022-08-14T04:13:31;7.75;;;7.22;;
27977;SDS011;15314;49.248;6.968;2022-08-14T04:14:34;8.48;;;7.10;;
27977;SDS011;15314;49.248;6.968;2022-08-14T04:15:35;6.65;;;6.25;;
27977;SDS011;15314;49.248;6.968;2022-08-14T04:16:35;7.55;;;7.15;;
27977;SDS011;15314;49.248;6.968;2022-08-14T04:17:36;7.85;;;7.45;;
27977;SDS011;15314;49.248;6.968;2022-08-14T04:18:38;8.93;;;6.28;;
27977;SDS011;15314;49.248;6.968;2022-08-14T04:19:42;6.95;;;6.53;;
27977;SDS011;15314;49.248;6.968;2022-08-14T04:20:44;7.65;;;6.95;;
27977;SDS011;15314;49.248;6.968;2022-08-14T04:21:44;8.23;;;7.57;;
27977;SDS011;15314;49.248;6.968;2022-08-14T04:22:45;8.15;;;7.65;;
27977;SDS011;15314;49.248;6.968;2022-08-14T04:23:46;8.20;;;7.45;;
27977;SDS011;15314;49.248;6.968;2022-08-14T04:24:47;7.50;;;7.10;;
27977;SDS011;15314;49.248;6.968;2022-08-14T04:25:48;8.30;;;7.70;;
27977;SDS011;15314;49.248;6.968;2022-08-14T04:26:51;8.55;;;8.10;;
27977;SDS011;15314;49.248;6.968;2022-08-14T04:27:52;8.45;;;7.85;;
27977;SDS011;15314;49.248;6.968;2022-08-14T04:28:54;8.85;;;8.15;;
27977;SDS011;15314;49.248;6.968;2022-08-14T04:29:55;8.80;;;8.05;;
27977;SDS011;15314;49.248;6.968;2022-08-14T04:30:56;8.80;;;8.13;;
27977;SDS011;15314;49.248;6.968;2022-08-14T04:31:57;9.20;;;8.07;;
27977;SDS011;15314;49.248;6.968;2022-08-14T04:33:01;9.25;;;8.50;;
27977;SDS011;15314;49.248;6.968;2022-08-14T04:34:01;8.85;;;8.23;;
27977;SDS011;15314;49.248;6.968;2022-08-14T04:35:03;9.25;;;8.85;;
27977;SDS011;15314;49.248;6.968;2022-08-14T04:36:04;9.50;;;9.00;;
27977;SDS011;15314;49.248;6.968;2022-08-14T04:37:05;9.95;;;9.15;;
27977;SDS011;15314;49.248;6.968;2022-08-14T04:38:25;10.50;;;9.50;;
27977;SDS011;15314;49.248;6.968;2022-08-14T04:39:44;9.70;;;9.13;;
27977;SDS011;15314;49.248;6.968;2022-08-14T04:41:03;9.55;;;8.93;;
27977;SDS011;15314;49.248;6.968;2022-08-14T04:42:23;9.50;;;8.93;;
27977;SDS011;15314;49.248;6.968;2022-08-14T04:43:42;9.85;;;9.25;;
27977;SDS011;15314;49.248;6.968;2022-08-14T04:44:43;9.65;;;8.93;;
27977;SDS011;15314;49.248;6.968;2022-08-14T04:45:44;9.23;;;8.82;;
27977;SDS011;15314;49.248;6.968;2022-08-14T04:46:45;9.40;;;8.88;;
27977;SDS011;15314;49.248;6.968;2022-08-14T04:48:15;9.98;;;9.18;;
27977;SDS011;15314;49.248;6.968;2022-08-14T04:49:17;10.00;;;9.45;;
27977;SDS011;15314;49.248;6.968;2022-08-14T04:50:18;10.02;;;9.30;;
27977;SDS011;15314;49.248;6.968;2022-08-14T04:51:19;10.40;;;9.45;;
27977;SDS011;15314;49.248;6.968;2022-08-14T04:52:27;9.80;;;9.30;;
27977;SDS011;15314;49.248;6.968;2022-08-14T04:53:27;9.55;;;9.05;;
27977;SDS011;15314;49.248;6.968;2022-08-14T04:54:30;9.73;;;9.23;;
27977;SDS011;15314;49.248;6.968;2022-08-14T04:55:31;9.27;;;8.77;;
27977;SDS011;15314;49.248;6.968;2022-08-14T04:56:32;9.27;;;8.52;;
27977;SDS011;15314;49.248;6.968;2022-08-14T04:57:33;9.35;;;8.75;;
27977;SDS011;15314;49.248;6.968;2022-08-14T04:58:34;8.80;;;8.40;;
27977;SDS011;15314;49.248;6.968;2022-08-14T04:59:34;9.35;;;8.85;;
27977;SDS011;15314;49.248;6.968;2022-08-14T05:00:36;9.57;;;8.73;;
27977;SDS011;15314;49.248;6.968;2022-08-14T05:01:39;9.18;;;8.48;;
27977;SDS011;15314;49.248;6.968;2022-08-14T05:02:42;9.13;;;8.63;;
27977;SDS011;15314;49.248;6.968;2022-08-14T05:03:43;9.40;;;8.80;;
27977;SDS011;15314;49.248;6.968;2022-08-14T05:04:43;9.73;;;9.13;;
27977;SDS011;15314;49.248;6.968;2022-08-14T05:05:44;9.52;;;8.82;;
27977;SDS011;15314;49.248;6.968;2022-08-14T05:06:44;9.43;;;8.68;;
27977;SDS011;15314;49.248;6.968;2022-08-14T05:07:45;9.73;;;9.00;;
27977;SDS011;15314;49.248;6.968;2022-08-14T05:08:46;9.43;;;8.93;;
27977;SDS011;15314;49.248;6.968;2022-08-14T05:09:47;9.20;;;8.60;;
27977;SDS011;15314;49.248;6.968;2022-08-14T05:10:48;9.43;;;8.73;;
27977;SDS011;15314;49.248;6.968;2022-08-14T05:11:53;8.82;;;8.32;;
27977;SDS011;15314;49.248;6.968;2022-08-14T05:12:54;9.30;;;8.63;;
27977;SDS011;15314;49.248;6.968;2022-08-14T05:13:55;8.90;;;8.40;;
27977;SDS011;15314;49.248;6.968;2022-08-14T05:14:56;8.48;;;7.97;;
27977;SDS011;15314;49.248;6.968;2022-08-14T05:15:57;9.52;;;8.80;;
27977;SDS011;15314;49.248;6.968;2022-08-14T05:16:59;9.38;;;8.73;;
27977;SDS011;15314;49.248;6.968;2022-08-14T05:18:00;9.20;;;8.70;;
27977;SDS011;15314;49.248;6.968;2022-08-14T05:19:02;9.40;;;8.90;;
27977;SDS011;15314;49.248;6.968;2022-08-14T05:20:04;8.75;;;8.25;;
27977;SDS011;15314;49.248;6.968;2022-08-14T05:21:08;10.05;;;9.20;;
27977;SDS011;15314;49.248;6.968;2022-08-14T05:22:09;9.50;;;8.90;;
27977;SDS011;15314;49.248;6.968;2022-08-14T05:23:09;9.15;;;8.65;;
27977;SDS011;15314;49.248;6.968;2022-08-14T05:24:11;9.20;;;8.70;;
27977;SDS011;15314;49.248;6.968;2022-08-14T05:25:11;9.13;;;8.65;;
27977;SDS011;15314;49.248;6.968;2022-08-14T05:26:12;9.13;;;8.52;;
27977;SDS011;15314;49.248;6.968;2022-08-14T05:27:13;9.75;;;9.10;;
27977;SDS011;15314;49.248;6.968;2022-08-14T05:28:22;8.60;;;8.20;;
27977;SDS011;15314;49.248;6.968;2022-08-14T05:29:24;9.30;;;8.80;;
27977;SDS011;15314;49.248;6.968;2022-08-14T05:30:25;10.18;;;9.57;;
27977;SDS011;15314;49.248;6.968;2022-08-14T05:31:26;9.38;;;8.98;;
27977;SDS011;15314;49.248;6.968;2022-08-14T05:32:27;9.63;;;8.88;;
27977;SDS011;15314;49.248;6.968;2022-08-14T05:33:28;9.77;;;9.05;;
27977;SDS011;15314;49.248;6.968;2022-08-14T05:34:30;10.05;;;9.45;;
27977;SDS011;15314;49.248;6.968;2022-08-14T05:35:31;9.88;;;9.18;;
27977;SDS011;15314;49.248;6.968;2022-08-14T05:36:31;10.65;;;9.85;;
27977;SDS011;15314;49.248;6.968;2022-08-14T05:37:32;10.48;;;9.63;;
27977;SDS011;15314;49.248;6.968;2022-08-14T05:38:34;10.38;;;9.68;;
27977;SDS011;15314;49.248;6.968;2022-08-14T05:39:37;9.35;;;8.90;;
27977;SDS011;15314;49.248;6.968;2022-08-14T05:40:40;10.23;;;9.63;;
27977;SDS011;15314;49.248;6.968;2022-08-14T05:41:41;11.27;;;10.68;;
27977;SDS011;15314;49.248;6.968;2022-08-14T05:42:41;9.93;;;9.32;;
27977;SDS011;15314;49.248;6.968;2022-08-14T05:43:43;11.20;;;10.30;;
27977;SDS011;15314;49.248;6.968;2022-08-14T05:44:46;10.70;;;9.73;;
27977;SDS011;15314;49.248;6.968;2022-08-14T05:45:47;10.43;;;9.82;;
27977;SDS011;15314;49.248;6.968;2022-08-14T05:46:48;10.82;;;10.18;;
27977;SDS011;15314;49.248;6.968;2022-08-14T05:47:48;11.60;;;10.90;;
27977;SDS011;15314;49.248;6.968;2022-08-14T05:48:49;10.88;;;10.07;;
27977;SDS011;15314;49.248;6.968;2022-08-14T05:49:52;11.32;;;10.57;;
27977;SDS011;15314;49.248;6.968;2022-08-14T05:50:53;11.80;;;10.95;;
27977;SDS011;15314;49.248;6.968;2022-08-14T05:51:54;11.60;;;10.68;;
27977;SDS011;15314;49.248;6.968;2022-08-14T05:52:55;10.73;;;10.23;;
27977;SDS011;15314;49.248;6.968;2022-08-14T05:53:57;11.02;;;10.25;;
27977;SDS011;15314;49.248;6.968;2022-08-14T05:54:58;10.75;;;9.90;;
27977;SDS011;15314;49.248;6.968;2022-08-14T05:55:59;10.80;;;10.18;;
27977;SDS011;15314;49.248;6.968;2022-08-14T05:57:00;11.25;;;10.45;;
27977;SDS011;15314;49.248;6.968;2022-08-14T05:58:05;11.00;;;10.18;;
27977;SDS011;15314;49.248;6.968;2022-08-14T05:59:07;12.13;;;11.18;;
27977;SDS011;15314;49.248;6.968;2022-08-14T06:00:07;11.40;;;10.65;;
27977;SDS011;15314;49.248;6.968;2022-08-14T06:01:08;12.25;;;11.38;;
27977;SDS011;15314;49.248;6.968;2022-08-14T06:02:10;11.93;;;11.20;;
27977;SDS011;15314;49.248;6.968;2022-08-14T06:03:12;12.45;;;11.35;;
27977;SDS011;15314;49.248;6.968;2022-08-14T06:04:15;13.27;;;12.02;;
27977;SDS011;15314;49.248;6.968;2022-08-14T06:05:16;13.27;;;12.20;;
27977;SDS011;15314;49.248;6.968;2022-08-14T06:06:17;13.93;;;12.63;;
27977;SDS011;15314;49.248;6.968;2022-08-14T06:07:18;14.32;;;12.50;;
27977;SDS011;15314;49.248;6.968;2022-08-14T06:08:22;12.85;;;11.75;;
27977;SDS011;15314;49.248;6.968;2022-08-14T06:09:24;13.13;;;11.95;;
27977;SDS011;15314;49.248;6.968;2022-08-14T06:10:26;13.15;;;11.93;;
27977;SDS011;15314;49.248;6.968;2022-08-14T06:11:27;12.93;;;12.02;;
27977;SDS011;15314;49.248;6.968;2022-08-14T06:12:28;12.35;;;11.35;;
27977;SDS011;15314;49.248;6.968;2022-08-14T06:13:29;11.93;;;11.02;;
27977;SDS011;15314;49.248;6.968;2022-08-14T06:14:31;11.77;;;10.88;;
27977;SDS011;15314;49.248;6.968;2022-08-14T06:15:32;12.68;;;10.40;;